EDHL/LBC METAR and TAF weather

Enter ICAO airport designator
Station Type Date Time Source
EDHL METAR 2021/07/26 12:20 UTC NOAA

EDHL 261220Z VRB02KT CAVOK 24/17 Q1010


Station Type Date Time Source
EDHL Decoded METAR 2021/07/26 12:20 UTC NOAA

Luebeck-Blankensee, Germany (EDHL) 53-49N 010-42E 15M
Jul 26, 2021 - 08:20 AM EDT / 2021.07.26 1220 UTC
Wind: Variable at 2 MPH (2 KT):0
Visibility: greater than 7 mile(s):0
Temperature: 75 F (24 C)
Dew Point: 62 F (17 C)
Relative Humidity: 64%
Pressure (altimeter): 29.83 in. Hg (1010 hPa)
ob: EDHL 261220Z VRB02KT CAVOK 24/17 Q1010
cycle: 12

Station Type Date Time Source
EDHL TAF 2010/02/22 14:20 UTC NOAA

METAR EDHL 221420Z 15004KT 110V180 9999 FEW039 SCT120 05/02 Q0990
RMK X

Example: see airport list